Time;durP1;ratioP1;P1;durP2;ratioP2;P2;SDS_P1;SDS_P2;PMS_P1;PMS_P2;Temp;Humidity;BMP_temperature;BMP_pressure;BME280_temperature;BME280_humidity;BME280_pressure;Samples;Min_cycle;Max_cycle;Signal;HPM_P1;HPM_P2
2021/06/01 00:02:06;;;;;;;12.52;4.60;;;;;;;10.90;62.63;99672.53;5012849;28;20038;-60
2021/06/01 00:04:32;;;;;;;11.63;4.35;;;;;;;10.92;63.15;99678.50;5013153;28;20034;-60
2021/06/01 00:06:57;;;;;;;8.90;5.03;;;;;;;10.83;63.45;99690.59;5012755;28;20045;-60
2021/06/01 00:09:23;;;;;;;8.25;5.03;;;;;;;10.73;64.55;99690.38;5012964;28;20036;-60
2021/06/01 00:11:49;;;;;;;10.52;5.30;;;;;;;10.15;67.54;99678.47;5012653;28;20041;-60
2021/06/01 00:14:14;;;;;;;7.97;5.40;;;;;;;10.09;67.86;99696.28;5013183;28;20025;-60
2021/06/01 00:16:40;;;;;;;9.38;5.57;;;;;;;9.93;69.71;99680.84;5012711;28;20045;-60
2021/06/01 00:19:08;;;;;;;9.40;4.90;;;;;;;9.91;69.07;99689.13;5013082;28;20018;-60
2021/06/01 00:21:35;;;;;;;9.45;5.40;;;;;;;10.02;67.26;99690.19;5012623;28;20058;-60
2021/06/01 00:24:00;;;;;;;9.55;4.95;;;;;;;10.23;67.21;99691.53;5012908;28;20372;-60
2021/06/01 00:26:26;;;;;;;8.38;5.38;;;;;;;10.28;65.48;99688.19;5011198;28;20443;-61
2021/06/01 00:28:51;;;;;;;8.35;5.53;;;;;;;10.14;66.06;99688.38;5012873;28;20041;-61
2021/06/01 00:31:17;;;;;;;7.90;5.50;;;;;;;10.02;67.31;99689.38;5012599;28;20041;-60
2021/06/01 00:33:42;;;;;;;11.30;5.20;;;;;;;10.02;67.38;99692.06;5012803;28;20026;-60
2021/06/01 00:36:08;;;;;;;11.02;5.60;;;;;;;9.90;67.56;99695.50;5011250;28;20096;-61
2021/06/01 00:38:34;;;;;;;8.73;5.32;;;;;;;10.02;67.02;99694.75;5013243;28;20096;-60
2021/06/01 00:40:59;;;;;;;9.10;5.45;;;;;;;9.92;67.54;99689.94;5011841;28;20037;-61
2021/06/01 00:43:25;;;;;;;9.65;5.85;;;;;;;9.88;68.36;99696.75;5016887;28;20469;-61
2021/06/01 00:45:50;;;;;;;10.55;5.82;;;;;;;9.83;67.98;99696.63;5016459;28;20041;-61
2021/06/01 00:48:16;;;;;;;10.48;5.72;;;;;;;9.84;68.98;99700.94;5015761;28;20025;-61
2021/06/01 00:50:41;;;;;;;10.35;5.63;;;;;;;9.77;67.73;99697.53;5016394;28;20037;-61
2021/06/01 00:53:07;;;;;;;11.07;5.93;;;;;;;9.86;67.65;99691.66;5015406;28;20029;-61
2021/06/01 00:55:32;;;;;;;10.85;6.03;;;;;;;9.93;67.20;99700.41;5016319;28;20030;-60
2021/06/01 00:57:58;;;;;;;8.45;6.05;;;;;;;9.88;67.00;99699.44;5016548;28;20060;-61
2021/06/01 01:03:02;;;;;;;14.63;6.18;;;;;;;9.78;67.74;99689.25;5016560;28;20062;-61
2021/06/01 01:05:33;;;;;;;9.02;6.07;;;;;;;9.67;68.20;99688.19;5015716;28;20037;-61
2021/06/01 01:11:34;;;;;;;12.02;6.13;;;;;;;9.75;68.09;99688.91;5016181;28;20064;-60
2021/06/01 01:14:11;;;;;;;10.60;6.10;;;;;;;9.62;68.13;99696.06;5015085;28;20404;-60
2021/06/01 01:16:36;;;;;;;11.20;6.30;;;;;;;9.43;70.06;99702.47;4999500;28;20069;-60
2021/06/01 01:19:13;;;;;;;9.30;5.90;;;;;;;9.44;69.85;99693.41;5014827;28;20384;-61
2021/06/01 01:21:42;;;;;;;10.07;6.32;;;;;;;9.35;69.71;99692.88;5014694;28;20041;-60
2021/06/01 01:24:08;;;;;;;11.68;6.03;;;;;;;9.39;69.86;99696.75;5015030;28;20041;-61
2021/06/01 01:27:06;;;;;;;12.32;6.97;;;;;;;9.29;70.15;99694.59;5015658;28;20399;-60
2021/06/01 01:29:49;;;;;;;12.63;6.82;;;;;;;9.31;70.45;99693.53;5014433;28;20052;-60
2021/06/01 01:32:41;;;;;;;10.57;6.47;;;;;;;9.35;71.19;99698.22;5015594;28;20543;-61
2021/06/01 01:35:06;;;;;;;10.23;6.30;;;;;;;9.34;70.64;99690.44;5015423;28;20030;-60
2021/06/01 01:37:33;;;;;;;11.25;6.60;;;;;;;9.17;71.15;99683.00;5015829;28;20042;-60
2021/06/01 01:39:59;;;;;;;8.82;5.85;;;;;;;9.21;70.71;99688.69;4998266;28;20034;-61
2021/06/01 01:42:36;;;;;;;11.30;6.20;;;;;;;9.04;71.11;99686.63;5015499;28;20046;-61
2021/06/01 01:45:04;;;;;;;11.82;6.45;;;;;;;9.09;70.58;99685.97;5014301;28;20096;-60
2021/06/01 01:50:13;;;;;;;11.30;6.82;;;;;;;8.99;71.32;99680.31;5000629;28;20029;-60
2021/06/01 01:52:39;;;;;;;14.52;6.70;;;;;;;8.85;71.58;99680.41;5015625;28;20030;-60
2021/06/01 01:55:07;;;;;;;13.07;7.05;;;;;;;9.02;71.19;99677.19;5013806;28;20554;-60
2021/06/01 01:57:32;;;;;;;14.20;6.80;;;;;;;9.05;70.73;99674.88;5015540;28;20376;-60
2021/06/01 01:59:57;;;;;;;12.73;7.18;;;;;;;9.11;70.42;99683.91;5013898;28;20061;-60
2021/06/01 02:02:23;;;;;;;9.40;6.70;;;;;;;9.07;70.68;99685.38;5014773;28;20038;-60
2021/06/01 02:04:48;;;;;;;11.50;6.80;;;;;;;9.01;70.79;99684.41;5015235;28;20029;-60
2021/06/01 02:07:14;;;;;;;11.98;6.28;;;;;;;8.83;72.11;99687.03;5014728;28;20037;-60
2021/06/01 02:09:39;;;;;;;10.27;6.85;;;;;;;8.64;72.28;99678.97;5015016;28;20052;-60
2021/06/01 02:12:05;;;;;;;12.05;6.90;;;;;;;8.63;74.22;99687.19;5014476;28;20030;-60
2021/06/01 02:14:30;;;;;;;15.15;7.13;;;;;;;8.65;72.55;99685.13;5015017;28;20026;-60
2021/06/01 02:16:58;;;;;;;11.15;6.65;;;;;;;8.58;72.80;99681.69;5014409;28;20096;-61
2021/06/01 02:19:24;;;;;;;13.95;6.97;;;;;;;8.63;72.55;99679.19;5014943;28;20037;-60
2021/06/01 02:22:24;;;;;;;14.48;7.47;;;;;;;8.82;71.10;99675.53;5014407;28;20117;-60
2021/06/01 02:25:07;;;;;;;12.15;6.45;;;;;;;8.88;71.46;99683.69;5014647;28;20057;-60
2021/06/01 02:27:42;;;;;;;8.75;6.25;;;;;;;8.40;72.32;99688.59;5014418;28;20045;-60
2021/06/01 02:30:09;;;;;;;12.18;6.40;;;;;;;7.96;75.00;99682.31;5013207;28;20125;-60
2021/06/01 02:32:43;;;;;;;14.90;6.72;;;;;;;8.49;72.70;99688.38;5013196;28;20034;-60
2021/06/01 02:35:35;;;;;;;11.43;6.13;;;;;;;8.43;73.11;99682.81;5013955;28;20022;-60
2021/06/01 02:38:02;;;;;;;15.02;6.07;;;;;;;8.42;72.56;99688.41;5014146;28;20068;-60
2021/06/01 02:40:27;;;;;;;9.68;6.88;;;;;;;8.44;73.16;99691.69;5014152;28;20517;-61
2021/06/01 02:42:53;;;;;;;10.18;5.82;;;;;;;8.34;73.21;99692.13;5014457;28;20037;-61
2021/06/01 02:45:19;;;;;;;13.40;6.55;;;;;;;8.34;73.35;99688.66;5014045;28;20021;-60
2021/06/01 02:47:45;;;;;;;11.50;5.28;;;;;;;8.47;71.75;99682.41;5014279;28;20018;-60
2021/06/01 02:50:12;;;;;;;12.05;5.40;;;;;;;8.63;70.84;99696.03;5014222;28;20026;-61
2021/06/01 02:52:37;;;;;;;8.82;6.05;;;;;;;8.51;71.25;99689.78;5013030;28;20112;-60
2021/06/01 02:55:04;;;;;;;11.48;6.78;;;;;;;8.43;71.96;99684.69;5013959;28;20053;-60
2021/06/01 02:57:30;;;;;;;10.98;6.28;;;;;;;8.21;73.44;99678.84;4996803;28;20034;-60
2021/06/01 02:59:55;;;;;;;10.43;6.13;;;;;;;8.14;73.09;99686.09;5012924;28;20396;-60
2021/06/01 03:02:21;;;;;;;9.18;5.97;;;;;;;8.12;73.46;99677.50;5012404;28;20065;-60
2021/06/01 03:04:53;;;;;;;12.48;6.00;;;;;;;8.18;72.80;99676.63;5012171;28;20097;-60
2021/06/01 03:07:19;;;;;;;11.18;6.03;;;;;;;8.04;73.80;99675.06;5013606;28;20041;-61
2021/06/01 03:09:44;;;;;;;10.05;5.90;;;;;;;8.59;70.28;99673.47;5014059;28;20026;-60
2021/06/01 03:12:20;;;;;;;10.90;5.68;;;;;;;8.73;69.60;99674.16;5013502;28;20026;-60
2021/06/01 03:14:46;;;;;;;13.60;5.72;;;;;;;8.57;70.98;99677.41;5013825;28;20380;-60
2021/06/01 03:17:12;;;;;;;9.23;5.70;;;;;;;8.38;70.84;99679.97;5013424;28;20042;-60
2021/06/01 03:19:37;;;;;;;9.40;6.20;;;;;;;8.17;72.66;99678.47;5013669;28;20431;-60
2021/06/01 03:22:03;;;;;;;13.32;6.78;;;;;;;7.96;73.44;99670.78;5011933;28;20093;-60
2021/06/01 03:24:28;;;;;;;10.43;6.45;;;;;;;7.72;74.75;99677.72;5013840;28;20060;-60
2021/06/01 03:26:54;;;;;;;11.75;6.45;;;;;;;7.80;74.33;99677.47;5011870;28;20041;-60
2021/06/01 03:29:19;;;;;;;12.48;7.57;;;;;;;7.66;74.75;99676.72;5013473;28;20034;-60
2021/06/01 03:31:45;;;;;;;11.10;6.80;;;;;;;7.56;75.43;99677.16;5013190;28;20041;-60
2021/06/01 03:34:10;;;;;;;9.95;6.80;;;;;;;7.56;75.52;99679.00;5013327;28;20087;-60
2021/06/01 03:36:35;;;;;;;10.30;6.28;;;;;;;8.37;73.26;99683.69;5013364;28;20038;-60
2021/06/01 03:39:04;;;;;;;10.07;6.43;;;;;;;8.62;71.17;99673.03;5013616;28;20088;-60
2021/06/01 03:41:29;;;;;;;9.60;6.40;;;;;;;9.05;68.96;99680.22;5012955;28;20065;-60
2021/06/01 03:43:55;;;;;;;10.65;5.95;;;;;;;9.97;65.54;99679.34;5013452;28;20029;-60
2021/06/01 03:46:20;;;;;;;9.60;5.72;;;;;;;11.16;61.35;99679.31;5012880;28;20042;-60
2021/06/01 03:48:46;;;;;;;8.95;5.95;;;;;;;11.26;61.32;99677.88;5012084;28;20357;-61
2021/06/01 03:51:11;;;;;;;10.13;5.22;;;;;;;11.72;59.60;99676.13;5013063;28;20030;-61
2021/06/01 03:53:37;;;;;;;9.45;5.32;;;;;;;12.89;55.07;99688.13;5013453;28;20032;-61
2021/06/01 03:56:02;;;;;;;8.63;4.93;;;;;;;13.56;52.95;99682.59;5012793;28;20034;-61
2021/06/01 03:58:28;;;;;;;9.98;5.30;;;;;;;14.66;50.00;99682.38;5011664;28;20069;-61
2021/06/01 04:00:53;;;;;;;9.18;4.90;;;;;;;14.27;50.86;99689.81;5011367;28;20034;-60
2021/06/01 04:03:19;;;;;;;6.78;4.90;;;;;;;13.84;52.17;99680.75;5013142;28;20502;-61
2021/06/01 04:05:44;;;;;;;10.75;5.57;;;;;;;15.39;47.52;99679.03;5012643;28;20041;-61
2021/06/01 04:08:09;;;;;;;8.32;4.93;;;;;;;15.32;47.71;99683.84;5013106;28;20034;-61
2021/06/01 04:10:35;;;;;;;6.95;4.70;;;;;;;16.58;44.95;99689.09;5012604;28;20030;-61
2021/06/01 04:13:00;;;;;;;8.77;5.03;;;;;;;18.20;40.26;99683.44;5011523;28;20038;-60
2021/06/01 04:15:26;;;;;;;8.77;5.40;;;;;;;17.66;41.26;99689.69;5010599;28;20388;-61
2021/06/01 04:17:51;;;;;;;9.77;5.05;;;;;;;17.10;42.69;99685.28;5012794;28;20040;-61
2021/06/01 04:20:17;;;;;;;8.07;5.03;;;;;;;17.98;40.75;99693.91;5012487;28;20029;-61
2021/06/01 04:22:43;;;;;;;6.70;4.72;;;;;;;17.46;42.09;99696.78;5012877;28;20083;-60
2021/06/01 04:25:09;;;;;;;6.22;4.50;;;;;;;18.11;40.06;99690.56;5011109;28;20079;-60
2021/06/01 04:27:35;;;;;;;9.50;4.93;;;;;;;18.68;38.79;99688.25;5012786;28;20030;-60
2021/06/01 04:30:00;;;;;;;8.20;4.25;;;;;;;18.29;39.52;99689.88;5011409;28;20046;-61
2021/06/01 04:32:25;;;;;;;7.28;4.30;;;;;;;17.81;40.74;99689.63;5012471;28;20517;-61
2021/06/01 04:34:51;;;;;;;6.90;4.55;;;;;;;18.66;38.88;99683.09;5012859;28;20029;-61
2021/06/01 04:37:16;;;;;;;11.02;4.32;;;;;;;18.98;38.53;99689.09;5012186;28;20427;-61
2021/06/01 04:39:42;;;;;;;7.63;4.50;;;;;;;18.26;39.26;99684.22;5012644;28;20022;-61
2021/06/01 04:42:07;;;;;;;8.45;4.45;;;;;;;20.13;36.16;99680.91;5012416;28;20042;-60
2021/06/01 04:44:33;;;;;;;9.02;4.53;;;;;;;19.83;36.03;99680.25;5012498;28;20033;-61
2021/06/01 04:46:58;;;;;;;6.97;4.20;;;;;;;20.09;35.81;99686.13;5012249;28;20034;-61
2021/06/01 04:49:24;;;;;;;6.15;4.40;;;;;;;19.20;37.58;99680.44;5012867;28;20026;-61
2021/06/01 04:51:49;;;;;;;6.72;4.15;;;;;;;19.42;36.85;99679.91;5012310;28;20034;-61
2021/06/01 04:54:14;;;;;;;7.82;4.00;;;;;;;19.87;36.25;99678.56;5012544;28;20026;-61
2021/06/01 04:56:40;;;;;;;6.32;4.63;;;;;;;20.36;35.00;99685.44;5012112;28;20045;-60
2021/06/01 04:59:06;;;;;;;5.38;4.05;;;;;;;20.90;34.14;99694.94;5012254;28;20104;-60
2021/06/01 05:01:31;;;;;;;7.95;4.25;;;;;;;21.40;33.51;99690.78;5011919;28;20033;-60
2021/06/01 05:03:57;;;;;;;6.88;4.05;;;;;;;21.05;33.87;99695.75;5012583;28;20033;-60
2021/06/01 05:06:22;;;;;;;6.07;3.97;;;;;;;21.96;32.28;99693.13;5012246;28;20542;-60
2021/06/01 05:08:48;;;;;;;9.73;4.00;;;;;;;21.14;33.94;99693.13;5012493;28;20487;-59
2021/06/01 05:11:15;;;;;;;7.45;3.97;;;;;;;21.62;33.06;99693.59;5012067;28;20073;-60
2021/06/01 05:13:40;;;;;;;8.07;4.20;;;;;;;22.25;32.19;99688.44;5012212;28;20045;-60
2021/06/01 05:16:06;;;;;;;5.53;3.92;;;;;;;21.69;33.36;99691.25;5012233;28;20038;-60
2021/06/01 05:18:31;;;;;;;7.43;3.80;;;;;;;23.75;30.46;99689.72;5012320;28;20076;-60
2021/06/01 05:20:57;;;;;;;5.40;3.60;;;;;;;23.22;30.62;99688.75;5012044;28;20055;-60
2021/06/01 05:23:22;;;;;;;6.35;3.80;;;;;;;22.56;31.66;99683.81;5012329;28;20411;-60
2021/06/01 05:25:47;;;;;;;7.57;3.53;;;;;;;23.18;31.03;99682.28;5012008;28;20030;-60
2021/06/01 05:28:13;;;;;;;8.93;4.20;;;;;;;22.40;32.05;99682.59;5013219;28;20492;-60
2021/06/01 05:33:29;;;;;;;9.73;4.40;;;;;;;24.53;27.74;99692.50;5015760;28;20045;-60
2021/06/01 05:35:54;;;;;;;17.52;4.80;;;;;;;23.30;29.77;99685.22;5015561;28;20131;-60
2021/06/01 05:38:24;;;;;;;17.20;5.38;;;;;;;24.17;28.29;99682.69;5015730;28;20484;-60
2021/06/01 05:40:50;;;;;;;12.80;4.72;;;;;;;23.15;29.77;99682.91;5015366;28;20117;-60
2021/06/01 05:43:16;;;;;;;16.10;4.63;;;;;;;23.60;29.37;99688.22;5015749;28;20107;-60
2021/06/01 05:45:41;;;;;;;11.35;4.60;;;;;;;23.57;29.24;99686.13;5015561;28;20034;-60
2021/06/01 05:48:08;;;;;;;14.05;5.78;;;;;;;24.15;28.45;99692.34;5015766;28;20033;-60
2021/06/01 05:50:34;;;;;;;16.83;5.60;;;;;;;24.00;28.75;99688.16;5015124;28;20029;-60
2021/06/01 05:53:00;;;;;;;18.40;5.32;;;;;;;24.44;28.66;99686.22;5015700;28;20029;-60
2021/06/01 05:55:26;;;;;;;18.48;5.43;;;;;;;24.87;28.47;99685.38;5015342;28;20046;-60
2021/06/01 05:57:51;;;;;;;14.73;5.13;;;;;;;24.87;28.60;99679.88;5015649;28;20037;-61
2021/06/01 06:00:17;;;;;;;17.60;5.32;;;;;;;25.65;27.56;99690.53;5014129;28;20346;-61
2021/06/01 06:02:43;;;;;;;27.27;6.28;;;;;;;24.50;29.13;99687.69;5016227;28;20029;-61
2021/06/01 06:05:09;;;;;;;19.70;5.40;;;;;;;24.70;28.93;99692.50;5014260;28;20362;-62
2021/06/01 06:07:34;;;;;;;25.40;5.80;;;;;;;25.20;28.21;99687.53;5016103;28;20172;-61
2021/06/01 06:10:00;;;;;;;37.85;6.40;;;;;;;24.84;27.57;99686.03;4998646;28;20061;-62
2021/06/01 06:12:25;;;;;;;36.97;6.43;;;;;;;25.11;27.91;99693.84;5015447;28;20040;-62
2021/06/01 06:14:51;;;;;;;42.08;6.55;;;;;;;24.24;29.27;99684.94;5015778;28;20026;-61
2021/06/01 06:17:45;;;;;;;33.35;6.20;;;;;;;23.87;29.28;99685.25;5015293;28;20030;-62
2021/06/01 06:20:12;;;;;;;32.00;6.25;;;;;;;24.52;28.29;99686.22;5013909;28;20030;-61
2021/06/01 06:22:38;;;;;;;39.28;6.95;;;;;;;25.13;28.11;99693.50;5015964;28;20468;-61
2021/06/01 06:25:05;;;;;;;31.90;5.90;;;;;;;25.09;28.17;99690.63;4997784;28;20036;-61
2021/06/01 06:27:31;;;;;;;24.95;5.95;;;;;;;24.40;28.85;99691.53;5014493;28;20030;-61
2021/06/01 06:29:56;;;;;;;29.85;5.50;;;;;;;25.77;27.07;99700.81;5015562;28;20412;-60
2021/06/01 06:32:22;;;;;;;25.95;5.70;;;;;;;26.73;25.46;99697.31;5014866;28;20034;-61
2021/06/01 06:34:47;;;;;;;28.95;5.68;;;;;;;26.51;26.39;99691.06;5015588;28;20119;-61
2021/06/01 06:37:13;;;;;;;30.05;5.70;;;;;;;26.35;26.90;99693.59;5013287;28;20073;-61
2021/06/01 06:39:39;;;;;;;23.33;5.30;;;;;;;26.64;26.29;99684.47;5014590;28;20036;-62
2021/06/01 06:42:05;;;;;;;24.83;5.70;;;;;;;26.88;26.46;99694.75;5014787;28;20100;-61
2021/06/01 06:44:31;;;;;;;32.60;5.60;;;;;;;26.57;26.86;99683.44;5014732;28;20468;-61
2021/06/01 06:49:45;;;;;;;40.55;6.70;;;;;;;26.61;27.19;99681.59;5004028;28;20038;-61
2021/06/01 06:52:11;;;;;;;34.17;5.82;;;;;;;27.66;25.73;99679.22;5014161;28;20034;-61
2021/06/01 06:54:36;;;;;;;33.28;6.70;;;;;;;27.35;26.34;99677.03;5014567;28;20030;-61
2021/06/01 06:57:03;;;;;;;37.95;6.00;;;;;;;26.55;27.58;99674.72;5013846;28;20453;-61
2021/06/01 06:59:28;;;;;;;44.95;5.50;;;;;;;28.14;24.78;99672.03;5014129;28;20499;-61
2021/06/01 07:01:53;;;;;;;28.95;5.80;;;;;;;28.26;25.39;99665.69;5013685;28;20042;-61
2021/06/01 07:04:19;;;;;;;29.23;5.68;;;;;;;28.17;25.79;99671.31;5012986;28;20133;-62
2021/06/01 07:06:48;;;;;;;34.70;5.70;;;;;;;27.67;26.00;99674.50;5013724;28;20289;-62
2021/06/01 07:09:14;;;;;;;25.70;5.38;;;;;;;28.54;24.91;99668.44;5012487;28;20034;-61
2021/06/01 07:11:39;;;;;;;23.05;4.38;;;;;;;29.32;23.69;99668.06;5012508;28;20053;-62
2021/06/01 07:14:17;;;;;;;23.98;4.80;;;;;;;27.71;26.05;99670.72;5013985;28;20038;-61
2021/06/01 07:16:43;;;;;;;21.43;4.17;;;;;;;28.80;24.87;99664.38;5013571;28;20369;-61
2021/06/01 07:19:08;;;;;;;18.83;3.50;;;;;;;29.43;23.53;99669.94;5014167;28;20259;-62
2021/06/01 07:21:34;;;;;;;14.05;3.80;;;;;;;30.28;22.73;99663.94;5013429;28;20056;-61
2021/06/01 07:23:59;;;;;;;14.75;3.15;;;;;;;27.01;26.38;99656.25;5014041;28;20030;-61
2021/06/01 07:26:25;;;;;;;11.88;3.40;;;;;;;27.97;24.75;99655.78;5013570;28;20369;-61
2021/06/01 07:28:50;;;;;;;13.40;3.03;;;;;;;28.57;24.46;99650.38;5013730;28;20088;-61
2021/06/01 07:31:16;;;;;;;11.90;3.17;;;;;;;27.00;25.70;99644.44;5013566;28;20065;-61
2021/06/01 07:33:42;;;;;;;10.20;2.90;;;;;;;28.27;24.36;99647.19;5013722;28;20030;-61
2021/06/01 07:36:08;;;;;;;11.25;2.80;;;;;;;28.98;23.97;99648.28;5013346;28;20038;-62
2021/06/01 07:38:35;;;;;;;15.48;3.05;;;;;;;29.54;23.00;99647.28;5013754;28;20416;-61
2021/06/01 07:41:04;;;;;;;7.32;2.83;;;;;;;27.63;24.98;99646.88;5011951;28;20045;-61
2021/06/01 07:43:30;;;;;;;3.40;2.00;;;;;;;28.55;21.67;99639.69;5013488;28;20450;-61
2021/06/01 07:45:55;;;;;;;5.00;2.25;;;;;;;26.27;25.39;99641.50;5013075;28;20030;-61
2021/06/01 07:48:21;;;;;;;4.03;2.20;;;;;;;28.73;21.14;99637.44;5013752;28;20030;-61
2021/06/01 07:50:46;;;;;;;4.47;2.40;;;;;;;28.55;21.76;99641.66;5012918;28;20034;-61
2021/06/01 07:53:12;;;;;;;4.22;2.20;;;;;;;29.12;20.92;99642.34;5013937;28;20037;-61
2021/06/01 07:55:37;;;;;;;4.22;2.20;;;;;;;27.09;24.05;99641.59;5013473;28;20038;-61
2021/06/01 07:58:03;;;;;;;4.30;2.40;;;;;;;25.36;25.85;99642.78;5011859;28;20065;-61
2021/06/01 08:00:28;;;;;;;4.18;2.33;;;;;;;23.56;27.95;99630.56;5013132;28;20058;-61
2021/06/01 08:02:54;;;;;;;29.80;3.33;;;;;;;23.59;28.39;99638.16;5013524;28;20034;-61
2021/06/01 08:05:20;;;;;;;17.90;3.47;;;;;;;24.68;27.72;99639.13;5013047;28;20112;-60
2021/06/01 08:07:47;;;;;;;6.85;2.67;;;;;;;25.11;25.56;99641.75;5013120;28;20034;-60
2021/06/01 08:10:15;;;;;;;5.13;2.45;;;;;;;23.77;28.16;99635.50;5012577;28;20029;-61
2021/06/01 08:12:41;;;;;;;4.57;2.38;;;;;;;24.43;26.87;99633.34;5012892;28;20025;-60
2021/06/01 08:15:07;;;;;;;4.97;2.50;;;;;;;24.25;26.37;99627.09;5012936;28;20484;-60
2021/06/01 08:17:33;;;;;;;5.40;2.40;;;;;;;22.85;29.23;99629.84;5012949;28;20026;-60
2021/06/01 08:20:08;;;;;;;4.07;2.63;;;;;;;24.70;26.46;99621.22;5013390;28;20026;-60
2021/06/01 08:22:34;;;;;;;7.90;2.50;;;;;;;23.26;28.23;99621.34;5012403;28;20133;-60
2021/06/01 08:24:59;;;;;;;4.60;2.90;;;;;;;26.47;24.25;99629.66;5013609;28;20029;-61
2021/06/01 08:27:25;;;;;;;5.03;2.20;;;;;;;26.09;25.21;99618.88;5010966;28;20038;-60
2021/06/01 08:29:50;;;;;;;5.63;2.30;;;;;;;25.58;25.86;99622.44;5013137;28;20029;-62
2021/06/01 08:32:16;;;;;;;6.25;2.40;;;;;;;25.93;25.14;99605.75;5012491;28;20034;-61
2021/06/01 08:34:41;;;;;;;4.00;2.33;;;;;;;25.69;24.85;99608.34;5012678;28;20026;-61
2021/06/01 08:37:07;;;;;;;9.02;2.40;;;;;;;23.54;25.64;99610.13;5012659;28;20042;-61
2021/06/01 08:39:32;;;;;;;4.40;2.30;;;;;;;23.35;26.15;99605.78;5012711;28;20115;-61
2021/06/01 08:41:58;;;;;;;3.13;2.17;;;;;;;22.23;28.56;99604.09;5012270;28;20385;-61
2021/06/01 08:44:24;;;;;;;3.63;2.38;;;;;;;21.02;31.97;99609.19;5012979;28;20483;-61
2021/06/01 08:46:51;;;;;;;6.13;2.60;;;;;;;20.58;32.87;99605.09;5012229;28;20408;-60
2021/06/01 08:49:17;;;;;;;20.67;3.25;;;;;;;21.52;30.81;99610.06;5012723;28;20049;-60
2021/06/01 08:51:43;;;;;;;9.90;2.70;;;;;;;21.76;29.97;99604.34;5012477;28;20034;-61
2021/06/01 08:54:09;;;;;;;4.55;2.50;;;;;;;22.81;28.72;99603.16;5012745;28;20076;-60
2021/06/01 08:56:34;;;;;;;5.45;2.90;;;;;;;22.10;32.22;99592.09;5012458;28;20144;-61
2021/06/01 08:59:00;;;;;;;3.50;2.53;;;;;;;21.91;30.61;99616.81;5012653;28;20484;-60
2021/06/01 09:01:25;;;;;;;3.63;2.67;;;;;;;24.37;26.71;99598.25;5010991;28;20381;-61
2021/06/01 09:03:54;;;;;;;4.55;2.30;;;;;;;22.92;30.22;99598.22;5016376;28;20022;-61
2021/06/01 09:06:24;;;;;;;7.07;2.67;;;;;;;22.43;29.98;99591.84;5016005;28;20042;-60
2021/06/01 09:22:36;;;;;;;5.03;2.60;;;;;;;21.30;31.86;99578.06;5015717;28;20053;-60
2021/06/01 09:25:13;;;;;;;4.13;2.65;;;;;;;24.49;27.14;99584.72;5015836;28;20129;-61
2021/06/01 09:27:53;;;;;;;4.22;2.75;;;;;;;24.42;26.56;99582.44;5016033;28;20068;-61
2021/06/01 09:30:40;;;;;;;4.30;2.40;;;;;;;23.08;29.88;99574.00;5015808;28;20045;-61
2021/06/01 09:33:08;;;;;;;4.35;2.40;;;;;;;22.09;30.19;99581.47;5016042;28;20125;-61
2021/06/01 09:36:06;;;;;;;4.75;2.70;;;;;;;24.09;28.13;99574.78;5015529;28;20073;-61
2021/06/01 09:38:44;;;;;;;8.05;2.90;;;;;;;24.51;26.89;99568.75;5016112;28;20030;-61
2021/06/01 09:41:13;;;;;;;5.10;2.47;;;;;;;23.54;28.01;99553.53;5014169;28;20042;-61
2021/06/01 09:43:56;;;;;;;5.03;2.53;;;;;;;23.51;28.76;99556.06;5015878;28;20102;-61
2021/06/01 09:46:38;;;;;;;7.63;2.63;;;;;;;22.46;28.78;99563.91;5014320;28;20034;-61
2021/06/01 09:49:13;;;;;;;4.07;2.53;;;;;;;22.60;28.90;99556.44;5015962;28;20025;-60
2021/06/01 09:51:39;;;;;;;5.45;2.88;;;;;;;21.57;30.29;99554.63;5015411;28;20054;-60
2021/06/01 09:54:32;;;;;;;3.92;2.42;;;;;;;22.33;29.65;99553.91;5015461;28;20030;-60
2021/06/01 09:56:58;;;;;;;3.72;2.60;;;;;;;22.12;30.08;99538.00;5015253;28;20099;-60
2021/06/01 09:59:23;;;;;;;5.13;2.53;;;;;;;22.46;28.19;99550.25;4997783;28;20504;-61
2021/06/01 10:01:49;;;;;;;6.15;2.55;;;;;;;22.70;27.90;99551.84;5015288;28;20040;-60
2021/06/01 10:04:26;;;;;;;7.13;2.80;;;;;;;21.38;28.58;99540.28;5014101;28;20025;-60
2021/06/01 10:06:52;;;;;;;4.55;2.30;;;;;;;21.58;27.93;99545.31;5015029;28;20042;-60
2021/06/01 10:09:17;;;;;;;4.80;2.50;;;;;;;22.70;26.09;99540.91;5015374;28;20045;-61
2021/06/01 10:11:56;;;;;;;6.70;2.63;;;;;;;21.72;26.81;99539.81;5015017;28;20037;-61
2021/06/01 10:14:22;;;;;;;4.03;2.33;;;;;;;21.19;26.89;99537.69;5013891;28;20030;-60
2021/06/01 10:16:48;;;;;;;3.35;2.50;;;;;;;21.61;27.45;99532.97;5014794;28;20034;-60
2021/06/01 10:19:14;;;;;;;4.32;2.50;;;;;;;22.07;26.18;99535.41;5015223;28;20049;-60
2021/06/01 10:21:39;;;;;;;5.10;2.33;;;;;;;22.86;26.29;99528.41;5014702;28;20041;-60
2021/06/01 10:24:07;;;;;;;4.78;2.50;;;;;;;22.21;26.23;99526.38;5015061;28;20026;-61
2021/06/01 10:26:32;;;;;;;4.60;2.65;;;;;;;22.36;25.95;99518.56;5014577;28;20038;-60
2021/06/01 10:28:58;;;;;;;5.07;2.45;;;;;;;21.85;26.61;99516.31;4997403;28;20036;-60
2021/06/01 10:31:23;;;;;;;4.05;2.53;;;;;;;21.70;27.97;99515.56;4997117;28;20485;-60
2021/06/01 10:33:58;;;;;;;4.25;2.33;;;;;;;21.94;27.83;99515.28;5013541;28;20499;-61
2021/06/01 10:44:44;;;;;;;5.03;2.88;;;;;;;21.94;27.69;99511.72;5014681;28;20029;-60
2021/06/01 10:50:24;;;;;;;5.20;2.50;;;;;;;23.23;26.72;99498.94;5015095;28;20110;-61
2021/06/01 10:53:06;;;;;;;5.95;2.47;;;;;;;21.91;26.71;99501.44;5012350;28;20128;-60
2021/06/01 10:55:57;;;;;;;4.65;2.33;;;;;;;22.83;25.72;99504.47;5014259;28;20080;-61
2021/06/01 10:58:37;;;;;;;3.80;2.40;;;;;;;22.34;25.14;99506.34;5014376;28;20050;-60
2021/06/01 11:04:06;;;;;;;4.53;2.60;;;;;;;22.63;26.08;99494.13;5014442;28;20372;-60
2021/06/01 11:09:32;;;;;;;6.32;2.50;;;;;;;22.17;25.65;99498.88;5009323;28;20084;-60
2021/06/01 11:12:20;;;;;;;5.18;2.88;;;;;;;22.40;25.24;99499.66;5013782;28;20066;-60
2021/06/01 11:14:50;;;;;;;5.18;2.75;;;;;;;22.30;25.01;99497.19;5006817;28;20042;-60
2021/06/01 11:17:34;;;;;;;6.50;2.72;;;;;;;22.82;25.97;99483.72;5013730;28;20037;-60
2021/06/01 11:20:19;;;;;;;4.65;2.50;;;;;;;23.32;27.60;99486.09;5014089;28;20026;-60
2021/06/01 11:23:16;;;;;;;6.32;2.50;;;;;;;21.91;27.47;99474.94;5013911;28;20046;-60
2021/06/01 11:33:28;;;;;;;5.90;3.28;;;;;;;22.23;26.24;99483.19;5014107;28;20126;-61
2021/06/01 11:35:55;;;;;;;5.63;3.10;;;;;;;22.89;26.11;99467.69;5004986;28;20034;-61
2021/06/01 11:43:25;;;;;;;4.88;2.70;;;;;;;22.54;27.10;99473.03;4994499;28;20041;-61
2021/06/01 11:51:22;;;;;;;5.30;2.60;;;;;;;22.73;26.21;99459.09;5003604;28;20046;-61
2021/06/01 11:53:53;;;;;;;7.50;2.58;;;;;;;22.06;25.82;99451.91;4994148;28;20035;-61
2021/06/01 11:56:46;;;;;;;5.40;2.55;;;;;;;21.63;26.61;99455.19;4993563;28;20500;-61
2021/06/01 12:04:36;;;;;;;4.55;2.63;;;;;;;23.23;25.05;99439.59;5012222;28;20038;-61
2021/06/01 12:18:17;;;;;;;5.22;2.58;;;;;;;21.85;28.14;99437.19;5013226;28;20036;-61
2021/06/01 12:20:42;;;;;;;5.18;2.70;;;;;;;22.44;26.97;99429.63;5006852;28;20124;-61
2021/06/01 12:23:32;;;;;;;4.97;2.60;;;;;;;22.66;28.02;99430.66;4993889;28;20026;-61
2021/06/01 12:25:59;;;;;;;3.72;2.65;;;;;;;23.54;27.60;99422.22;4993082;28;20104;-61
2021/06/01 12:31:13;;;;;;;5.97;2.70;;;;;;;22.37;28.63;99426.56;5002316;28;20400;-61
2021/06/01 12:33:39;;;;;;;9.25;2.50;;;;;;;22.80;28.53;99415.72;5012856;28;20034;-61
2021/06/01 12:44:08;;;;;;;;;;;;;;;22.30;28.16;99401.63;4993757;28;20032;-61
2021/06/01 12:47:03;;;;;;;7.75;2.50;;;;;;;23.12;26.65;99394.56;4992667;28;19918;-61
2021/06/01 13:39:34;;;;;;;5.15;2.72;;;;;;;23.15;27.64;99361.13;4970912;28;20560;-61
2021/06/01 13:47:10;;;;;;;6.07;2.35;;;;;;;23.84;25.95;99351.19;4994545;28;20050;-61
2021/06/01 14:21:18;;;;;;;4.90;2.60;;;;;;;23.47;25.68;99317.97;4995371;28;20033;-60
2021/06/01 15:32:13;;;;;;;6.05;2.88;;;;;;;23.99;27.01;99273.16;4980269;28;20096;-62
2021/06/01 15:48:51;;;;;;;7.18;2.60;;;;;;;23.57;25.75;99262.09;4994273;28;20100;-61
2021/06/01 17:04:50;;;;;;;4.32;2.25;;;;;;;23.40;24.87;99219.19;5012009;28;20041;-62
2021/06/01 17:07:27;;;;;;;5.40;2.40;;;;;;;23.58;25.20;99214.44;5012406;28;20069;-61
2021/06/01 17:12:46;;;;;;;6.07;2.60;;;;;;;23.50;25.58;99220.78;5011424;28;20041;-61
2021/06/01 17:15:12;;;;;;;;;;;;;;;23.53;24.84;99225.59;5012972;28;20030;-62